createdAt,value
2018-11-29T00:00:14.251Z,17.87
2018-11-29T00:05:18.803Z,17.90
2018-11-29T00:10:23.437Z,17.30
2018-11-29T00:15:46.739Z,17.47
2018-11-29T00:20:51.302Z,15.77
2018-11-29T00:25:55.856Z,16.87
2018-11-29T00:31:00.420Z,16.53
2018-11-29T00:36:04.998Z,16.13
2018-11-29T00:41:09.543Z,15.03
2018-11-29T00:46:14.142Z,14.70
2018-11-29T00:51:18.674Z,14.47
2018-11-29T00:56:23.247Z,14.70
2018-11-29T01:01:27.883Z,14.47
2018-11-29T01:06:32.413Z,15.30
2018-11-29T01:11:36.959Z,14.97
2018-11-29T01:16:41.584Z,14.43
2018-11-29T01:21:46.201Z,14.97
2018-11-29T01:26:50.744Z,15.07
2018-11-29T01:31:55.311Z,15.87
2018-11-29T01:37:18.910Z,15.80
2018-11-29T01:42:23.495Z,15.87
2018-11-29T01:47:28.052Z,16.17
2018-11-29T01:52:32.598Z,16.00
2018-11-29T01:57:37.306Z,15.93
2018-11-29T02:02:41.948Z,15.47
2018-11-29T02:07:46.497Z,14.30
2018-11-29T02:12:51.057Z,14.70
2018-11-29T02:17:55.588Z,15.33
2018-11-29T02:23:00.155Z,15.37
2018-11-29T02:28:04.817Z,14.80
2018-11-29T02:33:09.359Z,16.17
2018-11-29T02:38:13.973Z,15.83
2018-11-29T02:43:18.549Z,16.12
2018-11-29T02:48:23.155Z,16.32
2018-11-29T02:53:27.732Z,16.63
2018-11-29T02:58:32.303Z,15.72
2018-11-29T03:03:36.868Z,15.37
2018-11-29T03:09:00.400Z,15.27
2018-11-29T03:14:05.032Z,14.47
2018-11-29T03:19:09.606Z,14.87
2018-11-29T03:24:14.129Z,15.97
2018-11-29T03:29:18.712Z,15.70
2018-11-29T03:34:23.265Z,15.37
2018-11-29T03:39:27.822Z,15.30
2018-11-29T03:44:32.417Z,16.07
2018-11-29T03:49:36.982Z,14.93
2018-11-29T03:55:00.522Z,16.20
2018-11-29T04:00:05.119Z,16.37
2018-11-29T04:05:28.691Z,17.00
2018-11-29T04:10:33.269Z,16.53
2018-11-29T04:15:37.849Z,16.10
2018-11-29T04:20:42.441Z,16.83
2018-11-29T04:25:46.986Z,16.90
2018-11-29T04:30:51.552Z,17.77
2018-11-29T04:35:56.102Z,16.90
2018-11-29T04:41:00.655Z,17.47
2018-11-29T04:46:43.798Z,16.43
2018-11-29T04:51:48.386Z,17.33
2018-11-29T04:56:52.986Z,17.43
2018-11-29T05:01:57.486Z,17.57
2018-11-29T05:07:02.093Z,18.27
2018-11-29T05:12:06.640Z,19.20
2018-11-29T05:17:11.209Z,17.35
2018-11-29T05:22:34.712Z,18.87
2018-11-29T05:27:39.283Z,18.17
2018-11-29T05:32:43.818Z,19.07
2018-11-29T05:37:48.398Z,18.87
2018-11-29T05:42:53.043Z,18.47
2018-11-29T05:47:57.599Z,17.97
2018-11-29T05:53:02.094Z,18.73
2018-11-29T05:58:06.920Z,18.87
2018-11-29T06:03:11.514Z,19.60
2018-11-29T06:08:16.085Z,19.60
2018-11-29T06:13:31.831Z,19.73
2018-11-29T06:18:36.461Z,18.57
2018-11-29T06:23:41.028Z,19.90
2018-11-29T06:28:45.583Z,20.03
2018-11-29T06:33:50.239Z,19.97
2018-11-29T06:38:54.856Z,21.03
2018-11-29T06:43:59.495Z,20.90
2018-11-29T06:49:04.038Z,21.73
2018-11-29T06:54:08.611Z,21.03
2018-11-29T06:59:13.165Z,20.83
2018-11-29T07:04:17.744Z,21.43
2018-11-29T07:09:22.291Z,19.97
2018-11-29T07:14:26.841Z,22.50
2018-11-29T07:19:31.399Z,20.27
2018-11-29T07:24:35.961Z,19.70
2018-11-29T07:29:40.538Z,22.10
2018-11-29T07:34:45.150Z,20.33
2018-11-29T07:39:49.718Z,22.23
2018-11-29T07:44:54.331Z,20.10
2018-11-29T07:50:00.022Z,19.73
2018-11-29T07:55:03.493Z,20.43
2018-11-29T08:00:10.359Z,20.83
2018-11-29T08:05:15.934Z,19.90
2018-11-29T08:10:20.915Z,20.17
2018-11-29T08:15:44.459Z,19.60
2018-11-29T08:20:49.061Z,20.30
2018-11-29T08:25:53.630Z,20.17
2018-11-29T08:30:58.213Z,19.17
2018-11-29T08:36:02.844Z,19.03
2018-11-29T08:41:07.552Z,20.70
2018-11-29T08:46:12.093Z,19.10
2018-11-29T08:51:16.633Z,20.40
2018-11-29T08:56:21.239Z,18.93
2018-11-29T09:01:25.811Z,20.83
2018-11-29T09:06:30.417Z,19.50
2018-11-29T09:17:04.472Z,19.00
2018-11-29T09:22:09.006Z,19.10
2018-11-29T09:27:14.907Z,18.30
2018-11-29T09:32:22.784Z,19.40
2018-11-29T09:37:46.336Z,18.73
2018-11-29T09:42:51.573Z,19.17
2018-11-29T09:48:01.447Z,18.57
2018-11-29T09:53:06.772Z,18.07
2018-11-29T09:58:30.694Z,19.00
2018-11-29T10:03:35.281Z,17.27
2018-11-29T10:09:02.503Z,17.60
2018-11-29T10:14:07.872Z,18.23
2018-11-29T10:19:12.725Z,18.27
2018-11-29T10:24:17.352Z,18.73
2018-11-29T10:29:40.922Z,18.97
2018-11-29T10:34:45.494Z,18.27
2018-11-29T10:40:09.017Z,17.83
2018-11-29T10:45:18.086Z,18.03
2018-11-29T10:50:22.658Z,16.70
2018-11-29T10:55:27.221Z,16.67
2018-11-29T11:00:50.570Z,18.63
2018-11-29T11:05:55.178Z,18.03
2018-11-29T11:11:06.559Z,18.60
2018-11-29T11:16:11.130Z,17.80
2018-11-29T11:21:15.697Z,17.70
2018-11-29T11:26:20.232Z,17.73
2018-11-29T11:31:30.911Z,17.97
2018-11-29T11:36:29.370Z,18.53
2018-11-29T11:41:33.961Z,17.13
2018-11-29T11:46:38.547Z,16.37
2018-11-29T11:51:43.115Z,17.03
2018-11-29T11:56:47.657Z,17.17
2018-11-29T12:01:52.236Z,18.20
2018-11-29T12:06:56.780Z,19.07
2018-11-29T12:12:01.360Z,18.10
2018-11-29T12:17:05.989Z,18.20
2018-11-29T12:22:10.531Z,18.30
2018-11-29T12:27:15.086Z,17.80
2018-11-29T12:32:19.637Z,18.70
2018-11-29T12:37:24.260Z,19.80
2018-11-29T12:42:28.849Z,20.53
2018-11-29T12:47:33.384Z,20.73
2018-11-29T12:52:37.941Z,20.37
2018-11-29T12:57:42.525Z,20.70
2018-11-29T13:08:11.674Z,19.97
2018-11-29T13:13:34.929Z,18.97
2018-11-29T13:18:58.498Z,20.47
2018-11-29T13:24:03.219Z,20.27
2018-11-29T13:29:07.635Z,20.10
2018-11-29T13:39:41.722Z,19.57
2018-11-29T13:44:46.360Z,18.77
2018-11-29T13:49:50.892Z,19.70
2018-11-29T13:54:55.456Z,19.37
2018-11-29T14:00:00.070Z,18.87
2018-11-29T14:05:04.584Z,18.60
2018-11-29T14:10:28.128Z,18.40
2018-11-29T14:15:32.705Z,17.83
2018-11-29T14:20:37.392Z,17.97
2018-11-29T14:25:41.900Z,16.97
2018-11-29T14:30:46.459Z,16.67
2018-11-29T14:36:09.957Z,18.03
2018-11-29T14:41:14.725Z,18.27
2018-11-29T14:46:19.241Z,17.97
2018-11-29T14:51:23.778Z,18.53
2018-11-29T14:56:28.353Z,16.67
2018-11-29T15:01:32.992Z,17.00
2018-11-29T15:06:37.620Z,17.07
2018-11-29T15:11:42.232Z,15.40
2018-11-29T15:16:46.989Z,15.77
2018-11-29T15:21:51.422Z,14.60
2018-11-29T15:26:56.127Z,14.20
2018-11-29T15:32:00.638Z,13.90
2018-11-29T15:37:05.204Z,14.03
2018-11-29T15:42:09.811Z,13.70
2018-11-29T15:47:33.112Z,12.27
2018-11-29T15:52:37.747Z,12.67
2018-11-29T15:57:42.288Z,12.53
2018-11-29T16:02:48.221Z,10.67
2018-11-29T16:07:52.776Z,11.40
2018-11-29T16:13:16.474Z,11.50
2018-11-29T16:18:20.969Z,11.20
2018-11-29T16:23:25.661Z,10.33
2018-11-29T16:28:30.169Z,9.37
2018-11-29T16:33:36.543Z,10.03
2018-11-29T16:38:41.141Z,9.73
2018-11-29T16:43:45.800Z,9.83
2018-11-29T16:48:50.367Z,10.53
2018-11-29T16:53:54.906Z,9.43
2018-11-29T17:04:10.465Z,9.57
2018-11-29T17:09:15.067Z,9.50
2018-11-29T17:14:19.929Z,10.20
2018-11-29T17:19:25.517Z,10.30
2018-11-29T17:24:30.013Z,10.83
2018-11-29T17:29:34.564Z,10.35
2018-11-29T17:34:58.503Z,11.03
2018-11-29T17:40:02.977Z,11.30
2018-11-29T17:45:27.793Z,11.40
2018-11-29T17:56:15.403Z,11.73
2018-11-29T18:01:39.072Z,12.60
2018-11-29T18:06:43.813Z,13.67
2018-11-29T18:11:48.474Z,12.63
2018-11-29T18:17:11.975Z,13.40
2018-11-29T18:22:16.582Z,12.83
2018-11-29T18:27:21.133Z,13.57
2018-11-29T18:32:25.697Z,13.53
2018-11-29T18:37:50.125Z,13.67
2018-11-29T18:43:12.888Z,13.67
2018-11-29T18:48:17.492Z,14.77
2018-11-29T18:53:22.049Z,13.53
2018-11-29T18:58:45.303Z,13.93
2018-11-29T19:03:49.836Z,14.13
2018-11-29T19:08:54.441Z,13.60
2018-11-29T19:13:59.025Z,13.93
2018-11-29T19:19:03.554Z,13.00
2018-11-29T19:24:08.128Z,13.50
2018-11-29T19:29:12.626Z,13.17
2018-11-29T19:34:17.135Z,14.23
2018-11-29T19:39:21.668Z,13.07
2018-11-29T19:44:26.279Z,13.13
2018-11-29T19:54:59.830Z,12.43
2018-11-29T20:00:05.317Z,11.93
2018-11-29T20:05:11.292Z,10.97
2018-11-29T20:10:19.591Z,12.00
2018-11-29T20:15:24.136Z,11.80
2018-11-29T20:20:28.709Z,11.00
2018-11-29T20:25:33.387Z,11.87
2018-11-29T20:30:37.944Z,11.33
2018-11-29T20:35:42.634Z,10.17
2018-11-29T20:41:06.710Z,11.50
2018-11-29T20:46:18.321Z,10.13
2018-11-29T20:51:22.929Z,10.40
2018-11-29T20:56:27.491Z,10.70
2018-11-29T21:01:51.024Z,10.40
2018-11-29T21:07:14.581Z,10.60
2018-11-29T21:12:19.149Z,10.20
2018-11-29T21:17:42.694Z,9.23
2018-11-29T21:22:48.444Z,9.27
2018-11-29T21:28:12.069Z,9.13
2018-11-29T21:33:16.622Z,9.20
2018-11-29T21:38:22.114Z,9.50
2018-11-29T21:43:26.707Z,9.17
2018-11-29T21:48:31.318Z,9.33
2018-11-29T21:53:35.818Z,8.63
2018-11-29T21:58:40.333Z,9.27
2018-11-29T22:03:44.879Z,9.53
2018-11-29T22:08:49.447Z,9.20
2018-11-29T22:13:54.019Z,9.77
2018-11-29T22:18:58.579Z,9.13
2018-11-29T22:24:03.139Z,9.60
2018-11-29T22:29:07.722Z,9.23
2018-11-29T22:34:12.293Z,9.93
2018-11-29T22:39:16.827Z,10.10
2018-11-29T22:44:21.390Z,9.23
2018-11-29T22:49:25.971Z,9.80
2018-11-29T22:54:30.587Z,9.87
2018-11-29T22:59:35.191Z,10.77
2018-11-29T23:04:39.734Z,9.17
2018-11-29T23:09:44.287Z,10.47
2018-11-29T23:14:48.796Z,10.67
2018-11-29T23:19:53.385Z,11.20
2018-11-29T23:24:57.937Z,10.53
2018-11-29T23:30:21.431Z,10.90
2018-11-29T23:35:26.021Z,11.50
2018-11-29T23:40:30.717Z,10.90
2018-11-29T23:45:35.180Z,11.37
2018-11-29T23:50:58.683Z,11.83
2018-11-29T23:56:03.298Z,11.63
